createdAt,value
2023-05-11T00:01:05.514Z,15.60
2023-05-11T00:03:33.342Z,15.60
2023-05-11T00:06:00.598Z,15.60
2023-05-11T00:08:29.474Z,15.60
2023-05-11T00:10:56.538Z,15.60
2023-05-11T00:13:23.346Z,15.60
2023-05-11T00:15:50.347Z,15.60
2023-05-11T00:18:18.677Z,15.60
2023-05-11T00:20:46.114Z,15.50
2023-05-11T00:23:12.942Z,15.50
2023-05-11T00:25:39.754Z,15.50
2023-05-11T00:28:08.120Z,15.50
2023-05-11T00:30:35.028Z,15.50
2023-05-11T00:33:01.880Z,15.40
2023-05-11T00:35:28.712Z,15.40
2023-05-11T00:37:56.661Z,15.40
2023-05-11T00:40:23.485Z,15.50
2023-05-11T00:42:50.570Z,15.40
2023-05-11T00:45:17.426Z,15.40
2023-05-11T00:47:44.403Z,15.30
2023-05-11T00:50:11.417Z,15.40
2023-05-11T00:52:38.263Z,15.30
2023-05-11T00:55:05.683Z,15.30
2023-05-11T00:57:33.511Z,15.30
2023-05-11T01:00:04.611Z,15.20
2023-05-11T01:02:32.135Z,15.20
2023-05-11T01:04:59.618Z,15.10
2023-05-11T01:07:52.278Z,15.10
2023-05-11T01:10:50.008Z,15.10
2023-05-11T01:13:38.971Z,15.00
2023-05-11T01:16:14.130Z,15.00
2023-05-11T01:18:52.590Z,15.00
2023-05-11T01:21:19.872Z,15.00
2023-05-11T01:24:05.606Z,15.00
2023-05-11T01:27:17.016Z,15.00
2023-05-11T01:30:18.467Z,15.00
2023-05-11T01:32:46.874Z,15.00
2023-05-11T01:35:22.138Z,15.00
2023-05-11T01:37:54.975Z,15.00
2023-05-11T01:40:27.792Z,15.00
2023-05-11T01:43:04.590Z,15.00
2023-05-11T01:45:36.120Z,15.00
2023-05-11T01:48:07.724Z,15.00
2023-05-11T01:50:36.277Z,15.00
2023-05-11T01:53:04.376Z,15.00
2023-05-11T01:55:35.378Z,15.00
2023-05-11T01:58:04.480Z,15.00
2023-05-11T02:00:33.127Z,15.00
2023-05-11T02:03:02.607Z,15.00
2023-05-11T02:05:31.231Z,15.00
2023-05-11T02:08:01.079Z,15.00
2023-05-11T02:10:29.318Z,15.00
2023-05-11T02:12:59.141Z,15.00
2023-05-11T02:15:26.871Z,15.00
2023-05-11T02:17:56.146Z,15.00
2023-05-11T02:20:25.083Z,15.00
2023-05-11T02:22:53.704Z,15.00
2023-05-11T02:25:21.954Z,15.00
2023-05-11T02:27:48.836Z,15.00
2023-05-11T02:30:15.985Z,15.00
2023-05-11T02:32:49.845Z,15.00
2023-05-11T02:35:23.340Z,15.00
2023-05-11T02:37:54.100Z,15.00
2023-05-11T02:40:28.394Z,15.00
2023-05-11T02:43:01.592Z,15.00
2023-05-11T02:45:32.576Z,15.00
2023-05-11T02:48:07.381Z,15.00
2023-05-11T02:50:39.792Z,14.90
2023-05-11T02:53:15.489Z,15.00
2023-05-11T02:55:43.113Z,14.90
2023-05-11T02:58:10.356Z,14.90
2023-05-11T03:00:39.177Z,14.90
2023-05-11T03:03:07.467Z,14.90
2023-05-11T03:05:36.536Z,14.90
2023-05-11T03:08:03.716Z,14.90
2023-05-11T03:10:31.621Z,14.90
2023-05-11T03:12:59.754Z,14.90
2023-05-11T03:15:27.992Z,14.90
2023-05-11T03:17:57.323Z,14.90
2023-05-11T03:20:24.563Z,14.90
2023-05-11T03:22:54.807Z,14.80
2023-05-11T03:25:23.573Z,14.80
2023-05-11T03:27:52.823Z,14.80
2023-05-11T03:30:22.554Z,14.80
2023-05-11T03:32:52.639Z,14.80
2023-05-11T03:35:20.115Z,14.80
2023-05-11T03:37:49.111Z,14.70
2023-05-11T03:40:19.831Z,14.70
2023-05-11T03:42:48.166Z,14.70
2023-05-11T03:45:18.819Z,14.70
2023-05-11T03:47:48.193Z,14.60
2023-05-11T03:50:16.558Z,14.60
2023-05-11T03:52:44.127Z,14.60
2023-05-11T03:55:12.134Z,14.60
2023-05-11T03:57:39.701Z,14.50
2023-05-11T04:00:08.720Z,14.40
2023-05-11T04:02:36.456Z,14.40
2023-05-11T04:05:11.265Z,14.40
2023-05-11T04:07:39.185Z,14.30
2023-05-11T04:10:07.183Z,14.30
2023-05-11T04:12:34.261Z,14.30
2023-05-11T04:15:02.615Z,14.30
2023-05-11T04:17:30.908Z,14.30
2023-05-11T04:19:58.980Z,14.30
2023-05-11T04:22:25.773Z,14.30
2023-05-11T04:24:52.562Z,14.20
2023-05-11T04:27:19.529Z,14.20
2023-05-11T04:29:46.434Z,14.20
2023-05-11T04:32:13.366Z,14.20
2023-05-11T04:34:40.746Z,14.10
2023-05-11T04:37:08.614Z,14.20
2023-05-11T04:39:35.915Z,14.10
2023-05-11T04:42:05.266Z,14.10
2023-05-11T04:44:32.069Z,14.10
2023-05-11T04:46:59.344Z,14.10
2023-05-11T04:49:26.298Z,14.10
2023-05-11T04:51:53.634Z,14.10
2023-05-11T04:54:25.043Z,14.10
2023-05-11T04:56:51.822Z,14.10
2023-05-11T04:59:18.640Z,14.10
2023-05-11T05:01:46.135Z,14.10
2023-05-11T05:04:13.084Z,14.10
2023-05-11T05:06:40.072Z,14.10
2023-05-11T05:09:07.177Z,14.10
2023-05-11T05:11:34.007Z,14.10
2023-05-11T05:14:00.805Z,14.10
2023-05-11T05:16:30.185Z,14.10
2023-05-11T05:18:59.057Z,13.90
2023-05-11T05:21:26.091Z,14.00
2023-05-11T05:23:54.479Z,14.00
2023-05-11T05:26:22.329Z,13.90
2023-05-11T05:28:49.525Z,14.00
2023-05-11T05:31:16.391Z,14.00
2023-05-11T05:33:44.423Z,14.10
2023-05-11T05:36:11.227Z,14.10
2023-05-11T05:38:37.990Z,14.20
2023-05-11T05:41:05.249Z,14.20
2023-05-11T05:43:32.026Z,14.30
2023-05-11T05:45:58.836Z,14.30
2023-05-11T05:48:28.398Z,14.40
2023-05-11T05:50:55.629Z,14.40
2023-05-11T05:53:23.883Z,14.40
2023-05-11T05:55:52.077Z,14.40
2023-05-11T05:58:18.852Z,14.50
2023-05-11T06:00:45.892Z,14.50
2023-05-11T06:03:16.032Z,14.50
2023-05-11T06:05:44.601Z,14.50
2023-05-11T06:08:11.849Z,14.50
2023-05-11T06:10:39.241Z,14.50
2023-05-11T06:13:07.417Z,14.50
2023-05-11T06:15:34.275Z,14.60
2023-05-11T06:18:01.216Z,14.60
2023-05-11T06:20:28.109Z,14.60
2023-05-11T06:22:56.366Z,14.70
2023-05-11T06:25:23.270Z,14.80
2023-05-11T06:27:50.078Z,14.80
2023-05-11T06:30:18.129Z,14.90
2023-05-11T06:32:45.263Z,14.90
2023-05-11T06:35:12.190Z,15.00
2023-05-11T06:37:39.052Z,15.20
2023-05-11T06:40:07.108Z,15.20
2023-05-11T06:42:35.042Z,15.30
2023-05-11T06:45:03.640Z,15.30
2023-05-11T06:47:30.657Z,15.30
2023-05-11T06:49:58.448Z,15.40
2023-05-11T06:52:25.512Z,15.50
2023-05-11T06:54:53.655Z,15.50
2023-05-11T06:57:20.449Z,15.50
2023-05-11T06:59:47.267Z,15.60
2023-05-11T07:02:15.006Z,15.60
2023-05-11T07:04:45.558Z,15.60
2023-05-11T07:07:12.442Z,15.70
2023-05-11T07:09:41.912Z,15.80
2023-05-11T07:12:09.923Z,15.70
2023-05-11T07:14:38.708Z,15.70
2023-05-11T07:17:06.578Z,15.70
2023-05-11T07:19:33.494Z,15.70
2023-05-11T07:22:02.192Z,15.70
2023-05-11T07:24:29.109Z,15.70
2023-05-11T07:26:57.504Z,15.80
2023-05-11T07:29:25.763Z,15.80
2023-05-11T07:31:52.718Z,15.80
2023-05-11T07:34:19.628Z,15.80
2023-05-11T07:36:47.315Z,15.90
2023-05-11T07:39:17.131Z,15.90
2023-05-11T07:41:44.127Z,16.00
2023-05-11T07:44:11.804Z,16.00
2023-05-11T07:46:38.791Z,16.00
2023-05-11T07:51:42.444Z,16.00
2023-05-11T07:54:09.351Z,16.10
2023-05-11T07:56:37.231Z,16.10
2023-05-11T07:59:04.334Z,16.10
2023-05-11T08:01:32.475Z,16.10
2023-05-11T08:03:59.459Z,16.20
2023-05-11T08:06:26.363Z,16.20
2023-05-11T08:08:53.228Z,16.30
2023-05-11T08:11:21.999Z,16.40
2023-05-11T08:13:48.881Z,16.40
2023-05-11T08:16:16.872Z,16.50
2023-05-11T08:18:43.776Z,16.60
2023-05-11T08:21:14.699Z,16.60
2023-05-11T08:23:42.926Z,16.70
2023-05-11T08:26:11.386Z,16.70
2023-05-11T08:28:38.231Z,16.70
2023-05-11T08:31:06.353Z,16.70
2023-05-11T08:33:38.111Z,16.80
2023-05-11T08:36:07.016Z,16.90
2023-05-11T08:38:35.422Z,16.90
2023-05-11T08:41:02.901Z,17.00
2023-05-11T08:43:32.498Z,17.00
2023-05-11T08:46:04.018Z,17.00
2023-05-11T08:48:33.104Z,17.10
2023-05-11T08:51:00.368Z,17.20
2023-05-11T08:53:27.435Z,17.30
2023-05-11T08:55:58.081Z,17.30
2023-05-11T08:58:25.381Z,17.40
2023-05-11T09:00:54.517Z,17.40
2023-05-11T09:03:23.919Z,17.50
2023-05-11T09:05:53.624Z,17.50
2023-05-11T09:08:22.193Z,17.50
2023-05-11T09:10:50.267Z,17.60
2023-05-11T09:13:17.519Z,17.70
2023-05-11T09:15:44.933Z,17.70
2023-05-11T09:18:11.800Z,17.70
2023-05-11T09:20:43.813Z,17.80
2023-05-11T09:23:10.935Z,17.80
2023-05-11T09:25:40.546Z,17.90
2023-05-11T09:28:15.704Z,17.90
2023-05-11T09:33:12.186Z,18.10
2023-05-11T09:35:39.803Z,18.10
2023-05-11T09:38:09.358Z,18.20
2023-05-11T09:40:45.138Z,18.30
2023-05-11T09:43:19.588Z,18.30
2023-05-11T09:45:48.798Z,18.40
2023-05-11T09:48:22.074Z,18.40
2023-05-11T09:50:50.760Z,18.50
2023-05-11T09:53:17.953Z,18.50
2023-05-11T09:55:56.081Z,18.50
2023-05-11T09:58:22.979Z,18.60
2023-05-11T10:00:54.037Z,18.60
2023-05-11T10:03:21.136Z,18.70
2023-05-11T10:05:59.929Z,18.70
2023-05-11T10:08:31.228Z,18.80
2023-05-11T10:10:58.505Z,18.90
2023-05-11T10:13:26.667Z,19.00
2023-05-11T10:15:56.516Z,19.10
2023-05-11T10:18:23.864Z,19.00
2023-05-11T10:20:51.453Z,18.90
2023-05-11T10:23:20.160Z,18.90
2023-05-11T10:25:48.106Z,19.00
2023-05-11T10:28:15.987Z,19.10
2023-05-11T10:30:45.860Z,19.10
2023-05-11T10:33:13.557Z,19.20
2023-05-11T10:35:40.989Z,19.20
2023-05-11T10:38:09.936Z,19.10
2023-05-11T10:40:43.432Z,19.10
2023-05-11T10:43:28.820Z,19.10
2023-05-11T10:46:16.901Z,19.20
2023-05-11T10:48:55.073Z,19.10
2023-05-11T10:51:51.730Z,19.20
2023-05-11T10:54:42.892Z,19.10
2023-05-11T10:57:22.978Z,19.00
2023-05-11T11:00:15.133Z,19.00
2023-05-11T11:02:42.514Z,19.00
2023-05-11T11:05:14.228Z,19.00
2023-05-11T11:08:03.852Z,19.00
2023-05-11T11:10:39.944Z,19.00
2023-05-11T11:13:09.622Z,19.00
2023-05-11T11:15:54.819Z,19.10
2023-05-11T11:18:26.596Z,19.00
2023-05-11T11:20:55.337Z,19.10
2023-05-11T11:23:43.299Z,19.10
2023-05-11T11:26:15.825Z,19.20
2023-05-11T11:28:57.429Z,19.20
2023-05-11T11:31:28.284Z,19.20
2023-05-11T11:34:00.910Z,19.30
2023-05-11T11:36:59.510Z,19.30
2023-05-11T11:39:30.952Z,19.40
2023-05-11T11:42:05.704Z,19.40
2023-05-11T11:44:34.414Z,19.50
2023-05-11T11:47:10.495Z,19.60
2023-05-11T11:49:41.998Z,19.60
2023-05-11T11:52:28.064Z,19.60
2023-05-11T11:55:06.744Z,19.70
2023-05-11T11:57:34.167Z,19.60
2023-05-11T12:00:05.569Z,19.60
2023-05-11T12:02:40.508Z,19.60
2023-05-11T12:05:18.570Z,19.70
2023-05-11T12:07:48.397Z,19.70
2023-05-11T12:10:18.044Z,19.70
2023-05-11T12:12:46.228Z,19.70
2023-05-11T12:15:30.401Z,19.80
2023-05-11T12:17:58.587Z,19.80
2023-05-11T12:20:29.373Z,19.90
2023-05-11T12:22:56.719Z,19.90
2023-05-11T12:27:59.075Z,20.30
2023-05-11T12:30:34.214Z,20.10
2023-05-11T12:33:04.499Z,20.10
2023-05-11T12:35:34.102Z,20.10
2023-05-11T12:38:02.528Z,20.10
2023-05-11T12:40:31.537Z,20.10
2023-05-11T12:43:00.543Z,20.10
2023-05-11T12:45:29.668Z,20.20
2023-05-11T12:47:58.523Z,20.10
2023-05-11T12:50:28.318Z,20.20
2023-05-11T12:52:55.440Z,20.20
2023-05-11T12:55:29.594Z,20.10
2023-05-11T12:58:18.778Z,20.20
2023-05-11T13:00:55.739Z,20.20
2023-05-11T13:03:27.692Z,20.20
2023-05-11T13:06:12.226Z,20.20
2023-05-11T13:08:46.552Z,20.20
2023-05-11T13:11:26.997Z,20.20
2023-05-11T13:13:55.230Z,20.10
2023-05-11T13:16:32.083Z,20.10
2023-05-11T13:19:03.877Z,20.10
2023-05-11T13:21:33.845Z,20.10
2023-05-11T13:24:02.194Z,20.10
2023-05-11T13:26:33.051Z,20.20
2023-05-11T13:29:10.155Z,20.20
2023-05-11T13:31:52.668Z,20.20
2023-05-11T13:34:20.642Z,20.20
2023-05-11T13:36:48.188Z,20.30
2023-05-11T13:39:15.285Z,20.30
2023-05-11T13:41:42.142Z,20.20
2023-05-11T13:44:08.979Z,20.20
2023-05-11T13:46:36.039Z,20.30
2023-05-11T13:49:04.734Z,20.30
2023-05-11T13:51:32.406Z,20.30
2023-05-11T13:54:01.143Z,20.30
2023-05-11T13:56:28.062Z,20.30
2023-05-11T13:58:55.205Z,20.30
2023-05-11T14:01:23.029Z,20.30
2023-05-11T14:03:54.859Z,20.30
2023-05-11T14:06:23.250Z,20.30
2023-05-11T14:08:50.371Z,20.20
2023-05-11T14:11:17.483Z,20.20
2023-05-11T14:13:44.604Z,20.20
2023-05-11T14:16:11.717Z,20.20
2023-05-11T14:18:38.672Z,20.20
2023-05-11T14:21:05.862Z,20.20
2023-05-11T14:23:32.799Z,20.20
2023-05-11T14:25:59.988Z,20.20
2023-05-11T14:28:27.183Z,20.20
2023-05-11T14:30:55.314Z,20.20
2023-05-11T14:33:22.712Z,20.20
2023-05-11T14:35:50.148Z,20.20
2023-05-11T14:38:17.195Z,20.20
2023-05-11T14:40:44.201Z,20.20
2023-05-11T14:43:11.215Z,20.20
2023-05-11T14:45:38.112Z,20.20
2023-05-11T14:48:05.921Z,20.20
2023-05-11T14:50:35.273Z,20.10
2023-05-11T14:53:02.133Z,20.10
2023-05-11T14:55:29.066Z,20.10
2023-05-11T14:57:57.697Z,20.10
2023-05-11T15:00:24.767Z,20.10
2023-05-11T15:02:52.114Z,20.00
2023-05-11T15:05:19.172Z,20.00
2023-05-11T15:07:46.755Z,20.10
2023-05-11T15:10:13.666Z,20.00
2023-05-11T15:12:40.899Z,20.10
2023-05-11T15:15:09.833Z,20.00
2023-05-11T15:17:36.871Z,20.00
2023-05-11T15:20:04.530Z,20.00
2023-05-11T15:22:32.778Z,20.00
2023-05-11T15:25:03.818Z,19.90
2023-05-11T15:27:31.218Z,19.90
2023-05-11T15:30:00.789Z,19.90
2023-05-11T15:32:29.729Z,19.90
2023-05-11T15:35:00.102Z,19.90
2023-05-11T15:37:29.375Z,19.80
2023-05-11T15:39:56.395Z,19.80
2023-05-11T15:42:23.246Z,19.70
2023-05-11T15:44:53.731Z,19.70
2023-05-11T15:47:21.245Z,19.70
2023-05-11T15:49:48.132Z,19.60
2023-05-11T15:52:15.226Z,19.60
2023-05-11T15:54:46.186Z,19.50
2023-05-11T15:57:13.049Z,19.50
2023-05-11T15:59:39.977Z,19.50
2023-05-11T16:02:08.397Z,19.40
2023-05-11T16:04:36.387Z,19.40
2023-05-11T16:07:03.387Z,19.40
2023-05-11T16:09:30.264Z,19.40
2023-05-11T16:11:57.124Z,19.30
2023-05-11T16:14:25.169Z,19.30
2023-05-11T16:16:52.490Z,19.30
2023-05-11T16:19:19.284Z,19.30
2023-05-11T16:21:46.118Z,19.20
2023-05-11T16:24:13.108Z,19.20
2023-05-11T16:26:40.224Z,19.20
2023-05-11T16:29:07.722Z,19.20
2023-05-11T16:31:36.214Z,19.30
2023-05-11T16:34:03.451Z,19.20
2023-05-11T16:36:30.588Z,19.20
2023-05-11T16:38:57.768Z,19.20
2023-05-11T16:41:29.189Z,19.10
2023-05-11T16:43:57.986Z,19.10
2023-05-11T16:46:25.083Z,19.10
2023-05-11T16:48:53.034Z,19.00
2023-05-11T16:51:19.894Z,19.10
2023-05-11T16:53:46.980Z,19.00
2023-05-11T16:56:14.738Z,18.90
2023-05-11T16:58:43.491Z,18.90
2023-05-11T17:01:10.985Z,18.80
2023-05-11T17:03:38.400Z,18.80
2023-05-11T17:06:10.164Z,18.80
2023-05-11T17:08:36.989Z,18.80
2023-05-11T17:11:04.300Z,18.70
2023-05-11T17:13:31.322Z,18.70
2023-05-11T17:15:58.261Z,18.70
2023-05-11T17:18:25.280Z,18.70
2023-05-11T17:20:55.741Z,18.60
2023-05-11T17:23:24.091Z,18.60
2023-05-11T17:25:51.799Z,18.60
2023-05-11T17:28:18.726Z,18.60
2023-05-11T17:30:48.780Z,18.60
2023-05-11T17:33:17.351Z,18.60
2023-05-11T17:35:44.534Z,18.50
2023-05-11T17:38:11.529Z,18.60
2023-05-11T17:40:38.586Z,18.60
2023-05-11T17:43:05.452Z,18.60
2023-05-11T17:45:32.359Z,18.60
2023-05-11T17:47:59.703Z,18.50
2023-05-11T17:50:28.483Z,18.50
2023-05-11T17:52:55.298Z,18.50
2023-05-11T17:55:23.498Z,18.40
2023-05-11T17:57:51.810Z,18.40
2023-05-11T18:00:20.202Z,18.40
2023-05-11T18:02:50.325Z,18.40
2023-05-11T18:05:24.506Z,18.40
2023-05-11T18:07:57.574Z,18.40
2023-05-11T18:10:25.282Z,18.30
2023-05-11T18:12:52.269Z,18.30
2023-05-11T18:15:22.071Z,18.20
2023-05-11T18:17:50.037Z,18.10
2023-05-11T18:20:17.053Z,18.00
2023-05-11T18:22:45.054Z,17.90
2023-05-11T18:25:14.305Z,17.90
2023-05-11T18:27:41.516Z,17.90
2023-05-11T18:30:09.069Z,17.90
2023-05-11T18:32:38.467Z,17.90
2023-05-11T18:35:08.370Z,17.90
2023-05-11T18:37:36.408Z,17.80
2023-05-11T18:40:06.447Z,17.90
2023-05-11T18:42:33.538Z,17.80
2023-05-11T18:45:01.098Z,17.80
2023-05-11T18:47:32.571Z,17.80
2023-05-11T18:49:59.959Z,17.80
2023-05-11T18:52:27.481Z,17.60
2023-05-11T18:54:56.548Z,17.70
2023-05-11T18:57:25.184Z,17.70
2023-05-11T18:59:57.197Z,17.70
2023-05-11T19:02:24.075Z,17.60
2023-05-11T19:04:50.921Z,17.70
2023-05-11T19:07:20.009Z,17.70
2023-05-11T19:09:47.365Z,17.60
2023-05-11T19:12:17.692Z,17.60
2023-05-11T19:14:47.484Z,17.70
2023-05-11T19:17:14.535Z,17.60
2023-05-11T19:19:42.117Z,17.60
2023-05-11T19:22:09.373Z,17.60
2023-05-11T19:24:36.384Z,17.60
2023-05-11T19:27:07.847Z,17.60
2023-05-11T19:29:35.776Z,17.60
2023-05-11T19:32:03.226Z,17.60
2023-05-11T19:34:30.140Z,17.60
2023-05-11T19:36:56.980Z,17.60
2023-05-11T19:39:24.570Z,17.60
2023-05-11T19:41:52.058Z,17.50
2023-05-11T19:44:20.520Z,17.50
2023-05-11T19:46:49.742Z,17.50
2023-05-11T19:49:19.269Z,17.50
2023-05-11T19:51:46.545Z,17.50
2023-05-11T19:54:13.985Z,17.50
2023-05-11T19:56:41.722Z,17.50
2023-05-11T19:59:08.738Z,17.50
2023-05-11T20:01:37.670Z,17.50
2023-05-11T20:04:04.736Z,17.50
2023-05-11T20:06:32.297Z,17.50
2023-05-11T20:09:00.382Z,17.40
2023-05-11T20:11:29.028Z,17.40
2023-05-11T20:13:55.911Z,17.40
2023-05-11T20:16:22.870Z,17.40
2023-05-11T20:18:49.719Z,17.40
2023-05-11T20:21:16.791Z,17.40
2023-05-11T20:23:44.376Z,17.40
2023-05-11T20:26:11.330Z,17.40
2023-05-11T20:28:42.217Z,17.30
2023-05-11T20:31:09.758Z,17.30
2023-05-11T20:36:06.723Z,17.30
2023-05-11T20:38:35.164Z,17.30
2023-05-11T20:41:01.925Z,17.30
2023-05-11T20:43:32.155Z,17.30
2023-05-11T20:46:03.788Z,17.30
2023-05-11T20:48:39.716Z,17.20
2023-05-11T20:51:07.801Z,17.20
2023-05-11T20:53:34.672Z,17.20
2023-05-11T20:56:03.187Z,17.20
2023-05-11T20:58:31.058Z,17.20
2023-05-11T21:00:59.565Z,17.20
2023-05-11T21:03:27.833Z,17.20
2023-05-11T21:05:54.742Z,17.10
2023-05-11T21:08:21.755Z,17.20
2023-05-11T21:10:49.409Z,17.10
2023-05-11T21:13:17.319Z,17.20
2023-05-11T21:15:44.132Z,17.20
2023-05-11T21:18:11.137Z,17.20
2023-05-11T21:20:39.480Z,17.20
2023-05-11T21:23:06.308Z,17.20
2023-05-11T21:25:33.243Z,17.10
2023-05-11T21:28:01.125Z,17.10
2023-05-11T21:30:28.250Z,17.10
2023-05-11T21:32:55.056Z,17.10
2023-05-11T21:35:22.337Z,17.10
2023-05-11T21:37:50.181Z,17.10
2023-05-11T21:40:18.313Z,17.10
2023-05-11T21:42:45.454Z,17.00
2023-05-11T21:45:13.995Z,17.10
2023-05-11T21:47:40.793Z,17.00
2023-05-11T21:50:08.879Z,17.00
2023-05-11T21:52:37.393Z,17.00
2023-05-11T21:55:05.023Z,17.00
2023-05-11T21:57:31.901Z,17.00
2023-05-11T21:59:58.738Z,16.90
2023-05-11T22:02:25.980Z,16.90
2023-05-11T22:04:52.931Z,16.90
2023-05-11T22:07:25.687Z,16.90
2023-05-11T22:09:55.035Z,16.90
2023-05-11T22:12:21.810Z,16.90
2023-05-11T22:14:49.734Z,16.80
2023-05-11T22:17:16.603Z,16.80
2023-05-11T22:19:44.693Z,16.90
2023-05-11T22:22:12.672Z,16.80
2023-05-11T22:24:39.501Z,16.80
2023-05-11T22:27:08.757Z,16.80
2023-05-11T22:29:36.188Z,16.80
2023-05-11T22:32:03.165Z,16.90
2023-05-11T22:34:30.036Z,16.80
2023-05-11T22:36:56.864Z,16.80
2023-05-11T22:39:24.952Z,16.80
2023-05-11T22:41:51.757Z,16.70
2023-05-11T22:44:18.908Z,16.70
2023-05-11T22:46:45.698Z,16.70
2023-05-11T22:49:12.529Z,16.70
2023-05-11T22:51:39.296Z,16.70
2023-05-11T22:54:06.189Z,16.70
2023-05-11T22:56:33.177Z,16.70
2023-05-11T22:59:00.234Z,16.70
2023-05-11T23:01:30.074Z,16.70
2023-05-11T23:03:57.443Z,16.70
2023-05-11T23:06:24.842Z,16.70
2023-05-11T23:08:53.138Z,16.70
2023-05-11T23:11:20.197Z,16.60
2023-05-11T23:13:46.964Z,16.60
2023-05-11T23:16:13.911Z,16.60
2023-05-11T23:18:40.836Z,16.60
2023-05-11T23:21:08.551Z,16.60
2023-05-11T23:23:35.445Z,16.60
2023-05-11T23:26:02.326Z,16.60
2023-05-11T23:28:30.062Z,16.60
2023-05-11T23:30:56.970Z,16.60
2023-05-11T23:33:23.842Z,16.60
2023-05-11T23:35:51.174Z,16.50
2023-05-11T23:38:17.978Z,16.50
2023-05-11T23:40:44.755Z,16.50
2023-05-11T23:43:14.531Z,16.50
2023-05-11T23:45:41.319Z,16.50
2023-05-11T23:48:09.442Z,16.50
2023-05-11T23:50:36.230Z,16.50
2023-05-11T23:53:03.109Z,16.50
2023-05-11T23:55:30.037Z,16.50
2023-05-11T23:57:58.762Z,16.50
